Hlavní strana
METAR-TAF:

METAR-TAF

Letiště :

Tamanrasset, Alžírsko

zeměpisná šířka: 22-49N, zeměpisná délka: 005-28E, výška: 1377 m

Aktuální stav počasí

Zpráva byla vytvořena před 27 minutami, v 07:30 UTC
Severoseverozápadní vítr 13 kt
Teplota 26°C
Vlhkost vzduchu 13%
Tlak 1023 hPa
Viditelnost 10 km a více
Žádná oblačnost pod 1500 m, nevyskytují se cumulonimby.

METAR: DAAT 260730Z 34013KT CAVOK 26/M05 Q1023

Čas: 08:57 (07:57 UTC)

Předpověď počasí

Zpráva byla vytvořena před 2 hodinami a 57 minutami, v 05:00 UTC
Předpověď platná od 26 v 06 UTC do 27 v 06 UTC
Severní vítr 12 kt
Viditelnost 10 km a více
Žádná oblačnost pod 1500 m, nevyskytují se cumulonimby.

TAF: DAAT 260500Z 2606/2706 36012KT CAVOK

Stav a předpovědi počasí z více než 4 000 letišť (zprávy METAR a TAF).

Červené a žluté tečky na mapě představují dostupné meteorologické stanice.

Když kurzor umístíte na tečku, zobrazí se název stanice.

Pak kliknutím zobrazíte stav a předpověď počasí.

Chcete-li změnit mapu, kliknutím na zelené tlačítko se znaménkem +mapu přiblížíte, kliknutím na zelené tlačítko se znaménkem – mapu oddálíte a kliknutím na zelené šipky přejdete na sousední mapy.


METAR-TAF: